Time;durP1;ratioP1;P1;durP2;ratioP2;P2;SDS_P1;SDS_P2;PMS_P1;PMS_P2;Temp;Humidity;BMP_temperature;BMP_pressure;BME280_temperature;BME280_humidity;BME280_pressure;Samples;Min_cycle;Max_cycle;Signal;HPM_P1;HPM_P2
2023/09/14 00:00:19;;;;;;;0.62;0.52;;;;;;;24.02;60.49;99475.28;4427270;32;20114;-87
2023/09/14 00:02:45;;;;;;;0.32;0.17;;;;;;;23.82;60.48;99485.06;4428946;32;20196;-88
2023/09/14 00:05:11;;;;;;;1.42;0.68;;;;;;;23.73;60.46;99485.91;4455596;32;20173;-87
2023/09/14 00:07:37;;;;;;;0.08;0.08;;;;;;;23.46;60.45;99486.56;4429123;32;20119;-88
2023/09/14 00:10:02;;;;;;;0.10;0.10;;;;;;;23.55;60.46;99485.72;4415963;32;20157;-87
2023/09/14 00:12:28;;;;;;;0.30;0.30;;;;;;;23.09;60.44;99491.63;4428909;32;20119;-88
2023/09/14 00:14:53;;;;;;;1.02;0.45;;;;;;;23.05;60.44;99492.88;4428815;32;20350;-88
2023/09/14 00:17:19;;;;;;;0.95;0.60;;;;;;;22.75;60.42;99478.62;4415881;32;20093;-87
2023/09/14 00:19:44;;;;;;;0.65;0.65;;;;;;;22.72;60.42;99489.50;4415821;32;20146;-87
2023/09/14 00:22:09;;;;;;;0.00;0.00;;;;;;;22.68;60.42;99482.75;4415855;32;20105;-87
2023/09/14 00:24:36;;;;;;;0.40;0.40;;;;;;;22.74;60.42;99482.25;4455339;32;20180;-87
2023/09/14 00:27:02;;;;;;;0.25;0.25;;;;;;;22.65;60.42;99489.16;4441843;32;20101;-86
2023/09/14 00:29:27;;;;;;;0.65;0.65;;;;;;;22.59;60.41;99484.41;4441535;32;20081;-87
2023/09/14 00:31:52;;;;;;;0.13;0.10;;;;;;;22.54;60.41;99473.34;4441627;32;20694;-87
2023/09/14 00:34:18;;;;;;;0.00;0.00;;;;;;;22.63;60.42;99475.19;4441063;32;26006;-89
2023/09/14 00:36:43;;;;;;;0.55;0.55;;;;;;;22.42;60.41;99473.53;4415945;32;20137;-89
2023/09/14 00:39:09;;;;;;;4.37;0.90;;;;;;;22.65;60.42;99475.91;4441393;32;20136;-90
2023/09/14 00:41:34;;;;;;;0.00;0.00;;;;;;;22.50;60.40;99492.31;4441518;32;20158;-86
2023/09/14 00:44:00;;;;;;;21.75;1.37;;;;;;;22.68;60.41;99475.63;4428789;32;20086;-87
2023/09/14 00:46:26;;;;;;;0.22;0.22;;;;;;;22.82;60.42;99473.66;4415811;32;20152;-87
2023/09/14 00:48:51;;;;;;;0.32;0.32;;;;;;;22.76;60.41;99468.84;4415714;32;20153;-87
2023/09/14 00:51:17;;;;;;;0.08;0.08;;;;;;;22.74;60.42;99461.03;4428294;32;20260;-86
2023/09/14 00:53:42;;;;;;;0.32;0.32;;;;;;;22.75;60.42;99449.44;4428754;32;20105;-87
2023/09/14 00:56:08;;;;;;;0.45;0.45;;;;;;;22.73;60.42;99434.63;4428585;32;20418;-87
2023/09/14 00:58:33;;;;;;;0.08;0.08;;;;;;;22.66;60.42;99429.81;4431013;32;20122;-89
2023/09/14 01:01:00;;;;;;;0.30;0.30;;;;;;;22.58;60.41;99427.00;4431306;32;20512;-86
2023/09/14 01:03:25;;;;;;;0.17;0.13;;;;;;;22.55;60.40;99429.09;4419172;32;20116;-86
2023/09/14 01:05:51;;;;;;;0.20;0.20;;;;;;;22.53;60.41;99426.56;4412344;32;20383;-87
2023/09/14 01:08:16;;;;;;;0.00;0.00;;;;;;;22.28;60.39;99422.53;4411038;32;20463;-87
2023/09/14 01:10:42;;;;;;;0.10;0.10;;;;;;;22.39;60.39;99429.56;4410618;32;20135;-87
2023/09/14 01:13:11;;;;;;;0.68;0.68;;;;;;;22.34;60.40;99434.44;4397980;32;20152;-87
2023/09/14 01:16:07;;;;;;;0.10;0.10;;;;;;;22.34;60.40;99437.09;4398165;32;20113;-87
2023/09/14 01:18:40;;;;;;;3.28;1.37;;;;;;;22.52;60.40;99434.66;4421962;32;20110;-87
2023/09/14 01:21:29;;;;;;;0.52;0.52;;;;;;;22.42;60.41;99431.94;4398145;32;20180;-86
2023/09/14 01:24:02;;;;;;;0.13;0.13;;;;;;;22.46;60.40;99424.56;4410636;32;20093;-87
2023/09/14 01:26:28;;;;;;;0.45;0.45;;;;;;;22.60;60.41;99430.37;4411240;32;20555;-87
2023/09/14 01:28:53;;;;;;;0.10;0.10;;;;;;;22.58;60.40;99427.00;4397797;32;20682;-87
2023/09/14 01:31:19;;;;;;;0.32;0.32;;;;;;;22.49;60.41;99421.69;4423184;32;20132;-87
2023/09/14 01:33:48;;;;;;;0.75;0.25;;;;;;;22.52;60.40;99408.97;4410487;32;20097;-85
2023/09/14 01:36:37;;;;;;;0.80;0.80;;;;;;;22.55;60.41;99405.22;4423398;32;20258;-86
2023/09/14 01:39:04;;;;;;;0.08;0.08;;;;;;;22.52;60.41;99402.84;4410930;32;20169;-86
2023/09/14 01:41:31;;;;;;;1.33;0.80;;;;;;;22.41;60.39;99393.16;4398201;32;20512;-87
2023/09/14 01:43:56;;;;;;;1.00;0.50;;;;;;;22.40;60.39;99395.94;4410585;32;20093;-87
2023/09/14 01:46:21;;;;;;;1.05;0.95;;;;;;;22.29;60.39;99396.88;4410405;32;20138;-87
2023/09/14 01:48:47;;;;;;;4.28;0.82;;;;;;;22.35;60.40;99393.69;4397633;32;20179;-87
2023/09/14 01:51:12;;;;;;;0.77;0.77;;;;;;;22.26;60.39;99403.28;4410391;32;20449;-87
2023/09/14 01:53:38;;;;;;;0.03;0.03;;;;;;;22.26;60.38;99410.41;4423173;32;20117;-88
2023/09/14 01:56:03;;;;;;;0.37;0.37;;;;;;;22.34;60.40;99422.00;4410399;32;20093;-87
2023/09/14 01:58:29;;;;;;;0.00;0.00;;;;;;;22.17;60.38;99425.25;4410142;32;20110;-87
2023/09/14 02:00:56;;;;;;;0.00;0.00;;;;;;;22.06;60.38;99420.03;4403060;32;20105;-88
2023/09/14 02:03:21;;;;;;;0.43;0.43;;;;;;;21.78;60.36;99426.78;4439634;32;20093;-88
2023/09/14 02:05:54;;;;;;;0.62;0.62;;;;;;;21.75;60.36;99417.25;4425473;32;20088;-87
2023/09/14 02:08:20;;;;;;;0.15;0.15;;;;;;;21.80;60.37;99419.56;4438566;32;20455;-87
2023/09/14 02:10:45;;;;;;;0.20;0.20;;;;;;;21.67;60.35;99425.03;4438261;32;20152;-87
2023/09/14 02:13:10;;;;;;;1.05;0.25;;;;;;;21.69;60.36;99425.72;4438333;32;20187;-87
2023/09/14 02:15:36;;;;;;;0.10;0.10;;;;;;;21.67;60.36;99432.97;4438048;32;20081;-87
2023/09/14 02:18:01;;;;;;;0.70;0.70;;;;;;;21.64;60.36;99441.16;4424275;32;23711;-85
2023/09/14 02:20:27;;;;;;;0.40;0.40;;;;;;;21.67;60.36;99437.41;4438318;32;20366;-88
2023/09/14 02:22:52;;;;;;;0.45;0.30;;;;;;;21.69;60.36;99449.56;4412709;32;20116;-87
2023/09/14 02:25:18;;;;;;;0.00;0.00;;;;;;;21.65;60.36;99455.25;4425143;32;20108;-86
2023/09/14 02:27:43;;;;;;;0.75;0.60;;;;;;;21.55;60.35;99452.53;4425190;32;20102;-87
2023/09/14 02:30:09;;;;;;;0.10;0.10;;;;;;;21.42;60.35;99452.69;4438541;32;20356;-87
2023/09/14 02:32:34;;;;;;;1.60;0.57;;;;;;;21.44;60.35;99452.56;4439567;32;20085;-87
2023/09/14 02:34:59;;;;;;;0.40;0.40;;;;;;;21.37;60.34;99448.72;4412550;32;20097;-87
2023/09/14 02:37:25;;;;;;;1.48;0.32;;;;;;;21.45;60.35;99447.13;4438033;32;20186;-87
2023/09/14 02:39:50;;;;;;;1.02;1.02;;;;;;;21.44;60.35;99449.91;4437778;32;20144;-86
2023/09/14 02:42:16;;;;;;;0.20;0.20;;;;;;;21.57;60.36;99445.31;4438008;32;20398;-89
2023/09/14 02:44:41;;;;;;;0.10;0.05;;;;;;;21.52;60.35;99446.63;4411812;32;33180;-89
2023/09/14 02:47:06;;;;;;;0.20;0.20;;;;;;;21.44;60.34;99449.91;4437917;32;20203;-89
2023/09/14 02:49:32;;;;;;;0.82;0.73;;;;;;;21.33;60.34;99453.44;4437365;32;27462;-89
2023/09/14 02:51:58;;;;;;;0.10;0.10;;;;;;;21.48;60.35;99451.34;4425092;32;20397;-88
2023/09/14 02:54:23;;;;;;;0.00;0.00;;;;;;;21.43;60.34;99448.22;4425248;32;20097;-88
2023/09/14 02:56:49;;;;;;;1.40;0.15;;;;;;;21.46;60.34;99458.56;4437599;32;20454;-89
2023/09/14 02:59:17;;;;;;;0.30;0.30;;;;;;;21.46;60.34;99458.56;4438657;32;26913;-86
2023/09/14 03:01:44;;;;;;;0.00;0.00;;;;;;;21.45;60.34;99452.44;4424938;32;20104;-85
2023/09/14 03:04:09;;;;;;;0.08;0.08;;;;;;;21.37;60.34;99454.88;4425475;32;20666;-86
2023/09/14 03:06:35;;;;;;;0.20;0.20;;;;;;;21.36;60.34;99463.78;4411998;32;20515;-86
2023/09/14 03:09:00;;;;;;;0.30;0.30;;;;;;;21.44;60.34;99460.50;4425005;32;20432;-87
2023/09/14 03:11:26;;;;;;;1.50;1.30;;;;;;;21.33;60.34;99464.03;4412048;32;20132;-87
2023/09/14 03:13:51;;;;;;;0.00;0.00;;;;;;;21.33;60.34;99464.03;4425136;32;20168;-87
2023/09/14 03:16:17;;;;;;;0.32;0.20;;;;;;;21.34;60.34;99463.06;4424180;32;30757;-87
2023/09/14 03:18:42;;;;;;;0.28;0.28;;;;;;;21.35;60.34;99470.03;4424743;32;20518;-87
2023/09/14 03:21:22;;;;;;;0.28;0.28;;;;;;;21.36;60.34;99462.94;4438883;32;20148;-86
2023/09/14 03:23:48;;;;;;;0.30;0.30;;;;;;;21.25;60.33;99460.28;4424740;32;20097;-86
2023/09/14 03:26:13;;;;;;;0.35;0.32;;;;;;;21.33;60.35;99458.72;4424877;32;20112;-86
2023/09/14 03:28:39;;;;;;;0.20;0.20;;;;;;;21.33;60.35;99458.72;4427571;32;20132;-87
2023/09/14 03:31:04;;;;;;;0.40;0.40;;;;;;;21.43;60.34;99464.12;4425858;32;22979;-87
2023/09/14 03:33:30;;;;;;;4.28;1.25;;;;;;;21.37;60.34;99461.97;4425848;32;27528;-87
2023/09/14 03:35:55;;;;;;;0.20;0.20;;;;;;;21.28;60.33;99460.03;4438858;32;24375;-87
2023/09/14 03:38:20;;;;;;;0.15;0.15;;;;;;;21.40;60.34;99461.72;4426308;32;20359;-89
2023/09/14 03:40:46;;;;;;;1.65;0.32;;;;;;;21.47;60.33;99470.00;4439291;32;20175;-87
2023/09/14 03:43:11;;;;;;;5.32;1.48;;;;;;;21.28;60.33;99468.00;4427133;32;20137;-88
2023/09/14 03:45:37;;;;;;;1.17;1.08;;;;;;;21.24;60.33;99472.69;4413818;32;20151;-87
2023/09/14 03:48:04;;;;;;;0.08;0.08;;;;;;;21.15;60.32;99470.75;4439719;32;20780;-88
2023/09/14 03:50:30;;;;;;;0.70;0.55;;;;;;;21.25;60.33;99481.47;4439364;32;20120;-88
2023/09/14 03:52:55;;;;;;;0.57;0.57;;;;;;;21.27;60.34;99474.25;4413580;32;20549;-86
2023/09/14 03:55:21;;;;;;;0.10;0.10;;;;;;;21.26;60.34;99478.72;4413377;32;20183;-87
2023/09/14 03:57:47;;;;;;;1.98;0.93;;;;;;;21.34;60.34;99484.25;4438991;32;20126;-87
2023/09/14 04:00:15;;;;;;;0.30;0.30;;;;;;;21.06;60.32;99484.75;4427115;32;20097;-88
2023/09/14 04:02:41;;;;;;;0.47;0.47;;;;;;;21.25;60.34;99484.97;4428825;32;20682;-87
2023/09/14 04:05:16;;;;;;;0.62;0.55;;;;;;;21.35;60.34;99490.37;4428701;32;20131;-86
2023/09/14 04:07:43;;;;;;;0.10;0.10;;;;;;;21.39;60.34;99494.47;4428956;32;20563;-87
2023/09/14 04:10:12;;;;;;;0.60;0.60;;;;;;;21.36;60.34;99495.56;4441457;32;20155;-88
2023/09/14 04:12:38;;;;;;;13.25;1.00;;;;;;;21.28;60.33;99499.75;4433273;32;20060;-86
2023/09/14 04:15:04;;;;;;;0.40;0.40;;;;;;;21.31;60.34;99496.91;4436183;32;20100;-87
2023/09/14 04:17:29;;;;;;;0.00;0.00;;;;;;;21.20;60.33;99502.16;4423918;32;20078;-86
2023/09/14 04:19:55;;;;;;;0.50;0.40;;;;;;;21.17;60.33;99497.09;4441990;32;28353;-87
2023/09/14 04:22:20;;;;;;;0.30;0.30;;;;;;;21.10;60.33;99505.53;4429164;32;20139;-88
2023/09/14 04:24:46;;;;;;;0.30;0.30;;;;;;;21.18;60.33;99502.28;4415976;32;20418;-89
2023/09/14 04:27:11;;;;;;;0.00;0.00;;;;;;;21.28;60.33;99497.94;4415996;32;20450;-88
2023/09/14 04:29:36;;;;;;;0.17;0.17;;;;;;;21.36;60.34;99506.13;4415495;32;23097;-88
2023/09/14 04:32:03;;;;;;;0.73;0.35;;;;;;;21.30;60.33;99504.00;4428625;32;20125;-88
2023/09/14 04:34:28;;;;;;;0.40;0.40;;;;;;;21.28;60.33;99502.41;4428783;32;20105;-87
2023/09/14 04:36:54;;;;;;;0.45;0.30;;;;;;;21.28;60.33;99503.25;4414923;32;26198;-87
2023/09/14 04:39:19;;;;;;;0.35;0.25;;;;;;;21.28;60.33;99505.06;4428766;32;20162;-88
2023/09/14 04:41:44;;;;;;;1.05;0.70;;;;;;;21.10;60.33;99513.50;4414812;32;32805;-88
2023/09/14 04:44:11;;;;;;;0.47;0.47;;;;;;;21.15;60.32;99503.38;4415965;32;20164;-88
2023/09/14 04:46:36;;;;;;;1.67;1.05;;;;;;;21.15;60.32;99511.31;4416007;32;20143;-88
2023/09/14 04:49:01;;;;;;;0.32;0.28;;;;;;;21.06;60.32;99505.91;4428623;32;20385;-90
2023/09/14 04:51:27;;;;;;;1.08;0.70;;;;;;;21.09;60.33;99510.97;4428413;32;20136;-88
2023/09/14 04:53:53;;;;;;;2.75;1.37;;;;;;;21.18;60.33;99518.16;4441378;32;20502;-88
2023/09/14 04:56:19;;;;;;;0.55;0.55;;;;;;;21.02;60.31;99517.69;4428690;32;20097;-87
2023/09/14 04:58:44;;;;;;;0.65;0.47;;;;;;;21.09;60.33;99511.81;4428796;32;20115;-87
2023/09/14 05:01:10;;;;;;;0.17;0.17;;;;;;;21.14;60.32;99522.84;4428118;32;20438;-88
2023/09/14 05:03:35;;;;;;;1.23;0.88;;;;;;;21.03;60.32;99522.00;4440960;32;20149;-87
2023/09/14 05:06:02;;;;;;;0.75;0.30;;;;;;;21.15;60.32;99523.69;4441306;32;20145;-87
2023/09/14 05:08:27;;;;;;;0.68;0.30;;;;;;;21.09;60.31;99521.56;4428842;32;20404;-87
2023/09/14 05:10:53;;;;;;;0.20;0.20;;;;;;;21.24;60.33;99522.16;4428537;32;20088;-87
2023/09/14 05:13:20;;;;;;;0.28;0.28;;;;;;;21.37;60.34;99534.31;4428383;32;20105;-87
2023/09/14 05:15:45;;;;;;;0.08;0.08;;;;;;;21.28;60.33;99527.06;4416147;32;20109;-87
2023/09/14 05:18:11;;;;;;;0.50;0.50;;;;;;;21.41;60.34;99525.12;4415652;32;20131;-89
2023/09/14 05:20:36;;;;;;;0.20;0.20;;;;;;;21.40;60.34;99527.91;4427780;32;24929;-88
2023/09/14 05:23:03;;;;;;;1.00;0.98;;;;;;;21.58;60.35;99526.44;4441195;32;20108;-89
2023/09/14 05:25:29;;;;;;;0.88;0.70;;;;;;;21.37;60.34;99530.81;4415776;32;20109;-87
2023/09/14 05:27:54;;;;;;;0.20;0.20;;;;;;;21.37;60.34;99525.50;4428080;32;20724;-87
2023/09/14 05:30:22;;;;;;;0.25;0.25;;;;;;;21.21;60.33;99525.84;4415114;32;21042;-88
2023/09/14 05:32:49;;;;;;;0.30;0.30;;;;;;;21.30;60.33;99529.63;4415925;32;20105;-89
2023/09/14 05:35:17;;;;;;;0.50;0.50;;;;;;;21.35;60.33;99527.44;4409810;32;20186;-96
2023/09/14 05:37:43;;;;;;;0.65;0.65;;;;;;;21.42;60.34;99528.63;4428945;32;20111;-95
2023/09/14 05:40:12;;;;;;;0.40;0.40;;;;;;;21.43;60.34;99527.66;4415276;32;20089;-95
2023/09/14 05:42:41;;;;;;;1.62;0.57;;;;;;;21.50;60.34;99528.84;4415581;32;20074;-96
2023/09/14 05:45:11;;;;;;;0.30;0.30;;;;;;;21.57;60.35;99530.06;4416669;32;20100;-95
2023/09/14 05:47:41;;;;;;;0.17;0.17;;;;;;;21.52;60.35;99534.00;4428709;32;20116;-91
2023/09/14 05:50:08;;;;;;;0.30;0.30;;;;;;;21.65;60.36;99532.91;4427606;32;20093;-96
2023/09/14 05:52:33;;;;;;;0.55;0.50;;;;;;;21.58;60.35;99542.34;4413384;32;20151;-94
2023/09/14 05:54:59;;;;;;;0.45;0.43;;;;;;;21.61;60.34;99541.25;4414415;32;20101;-93
2023/09/14 05:57:24;;;;;;;0.70;0.70;;;;;;;21.68;60.35;99527.34;4414526;32;20141;-94
2023/09/14 05:59:50;;;;;;;0.52;0.52;;;;;;;21.52;60.34;99526.91;4414700;32;20137;-94
2023/09/14 06:02:18;;;;;;;0.80;0.60;;;;;;;21.56;60.34;99528.37;4414536;32;20188;-95
2023/09/14 06:04:44;;;;;;;0.17;0.17;;;;;;;21.69;60.35;99526.38;4414608;32;20186;-90
2023/09/14 06:07:29;;;;;;;0.25;0.25;;;;;;;21.81;60.36;99532.50;4427658;32;20133;-96
2023/09/14 06:10:02;;;;;;;0.88;0.80;;;;;;;21.83;60.36;99532.38;4398846;32;20093;-94
2023/09/14 06:13:26;;;;;;;;;;;;;;;;;;;;;
2023/09/14 06:15:57;;;;;;;0.00;0.00;;;;;;;22.09;60.37;99541.72;4437440;32;36847;-94
2023/09/14 06:21:43;;;;;;;1.85;1.17;;;;;;;22.03;60.37;99543.03;4384839;32;20129;-94
2023/09/14 06:24:12;;;;;;;0.00;0.00;;;;;;;22.03;60.38;99542.19;4416112;32;20110;-93
2023/09/14 06:26:38;;;;;;;0.98;0.82;;;;;;;22.16;60.37;99545.53;4426091;32;20105;-93
2023/09/14 06:29:03;;;;;;;4.57;0.98;;;;;;;22.23;60.38;99554.62;4411403;32;20414;-94
2023/09/14 06:42:42;;;;;;;0.32;0.30;;;;;;;23.16;60.43;99575.06;4456124;32;20100;-94
2023/09/14 07:20:00;;;;;;;0.28;0.28;;;;;;;24.50;60.49;99600.28;4415110;32;20178;-92
2023/09/14 07:36:43;;;;;;;1.08;0.80;;;;;;;24.89;60.51;99609.06;4423361;32;20533;-94
2023/09/14 07:42:40;;;;;;;0.20;0.20;;;;;;;24.77;60.51;99616.34;4423835;32;20173;-92
2023/09/14 07:58:01;;;;;;;0.43;0.32;;;;;;;25.24;60.54;99626.22;1585635;27;20365;-93
2023/09/14 08:04:08;;;;;;;1.08;0.70;;;;;;;25.19;60.53;99624.00;4439732;32;20113;-93
2023/09/14 08:06:35;;;;;;;3.30;1.23;;;;;;;24.96;60.52;99636.78;4425499;32;20113;-95
2023/09/14 08:13:03;;;;;;;1.23;1.02;;;;;;;24.67;60.50;99636.81;4365313;32;20110;-95
2023/09/14 08:15:28;;;;;;;0.45;0.35;;;;;;;24.79;60.51;99638.34;4351515;32;20216;-90
2023/09/14 08:21:25;;;;;;;0.77;0.77;;;;;;;24.74;60.51;99645.91;4339401;33;20125;-95
2023/09/14 08:24:06;;;;;;;0.50;0.50;;;;;;;24.60;60.50;99642.84;4392351;28;20062;-96
2023/09/14 08:29:06;;;;;;;0.45;0.45;;;;;;;24.88;60.52;99647.31;4690847;27;20101;-96
2023/09/14 08:31:32;;;;;;;0.43;0.43;;;;;;;24.82;60.51;99644.34;4384539;32;20158;-92
2023/09/14 08:34:48;;;;;;;1.45;0.88;;;;;;;24.82;60.51;99647.84;4396490;32;20083;-92
2023/09/14 08:37:14;;;;;;;1.17;1.00;;;;;;;24.82;60.51;99642.53;4393376;32;20157;-91
2023/09/14 08:40:40;;;;;;;3.03;1.12;;;;;;;25.03;60.53;99640.56;4406761;32;20399;-94
2023/09/14 08:43:27;;;;;;;2.92;1.05;;;;;;;25.33;60.54;99644.00;4394823;32;20104;-91
2023/09/14 08:47:10;;;;;;;0.50;0.50;;;;;;;25.52;60.55;99646.56;4395126;32;20462;-93
2023/09/14 08:56:15;;;;;;;0.40;0.40;;;;;;;26.16;60.58;99651.03;4448259;32;20099;-96
2023/09/14 09:14:46;;;;;;;0.70;0.70;;;;;;;26.54;60.61;99641.94;4360868;32;20124;-94
2023/09/14 09:30:56;;;;;;;0.40;0.40;;;;;;;26.89;60.63;99627.66;4451797;27;20482;-94
2023/09/14 09:33:58;;;;;;;0.73;0.45;;;;;;;26.72;60.61;99627.69;4394028;32;20143;-94
2023/09/14 09:39:29;;;;;;;0.77;0.20;;;;;;;26.65;60.62;99626.66;4421165;32;20120;-93
2023/09/14 09:42:21;;;;;;;0.47;0.47;;;;;;;27.07;60.63;99624.16;4392253;32;20451;-93
2023/09/14 09:45:23;;;;;;;0.10;0.10;;;;;;;27.34;60.65;99623.97;4389555;32;20102;-94
2023/09/14 09:47:54;;;;;;;0.25;0.25;;;;;;;27.09;60.63;99624.81;4416095;32;20699;-93
2023/09/14 09:57:36;;;;;;;0.82;0.82;;;;;;;27.03;60.63;99634.31;4363353;32;20655;-93
2023/09/14 10:01:07;;;;;;;;;;;;;;;;;;;;;
2023/09/14 10:04:20;;;;;;;0.22;0.22;;;;;;;27.17;60.64;99636.38;4331718;33;37228;-94
2023/09/14 13:04:29;;;;;;;1.92;0.85;;;;;;;26.38;60.60;99679.13;5369878;26;20044;-96
2023/09/14 14:06:45;;;;;;;1.00;0.90;;;;;;;25.32;60.55;99693.78;5303947;26;20018;-96
2023/09/14 16:17:12;;;;;;;0.47;0.28;;;;;;;24.36;60.50;99800.22;5351313;26;20024;-96
2023/09/14 16:38:54;;;;;;;;;;;;;;;;;;;;;
2023/09/14 17:11:51;;;;;;;1.00;0.47;;;;;;;23.63;60.47;99827.84;5389135;26;254183;-95
2023/09/14 17:14:19;;;;;;;0.20;0.20;;;;;;;23.66;60.47;99823.13;5362454;26;20120;-94
2023/09/14 17:16:59;;;;;;;;;;;;;;;;;;;;;
2023/09/14 17:35:09;;;;;;;;;;;;;;;;;;;;;
2023/09/14 18:41:10;;;;;;;0.45;0.28;;;;;;;22.48;60.40;99926.63;5364952;26;20060;-95
2023/09/14 18:43:40;;;;;;;0.00;0.00;;;;;;;22.41;60.39;99928.03;5331074;26;20474;-93
2023/09/14 18:46:12;;;;;;;0.10;0.10;;;;;;;22.30;60.39;99929.75;5334050;26;20071;-94
2023/09/14 18:48:42;;;;;;;0.10;0.10;;;;;;;22.30;60.39;99931.56;5314105;26;20069;-92
2023/09/14 18:51:17;;;;;;;0.00;0.00;;;;;;;22.21;60.38;99934.91;5313963;26;20490;-93
2023/09/14 18:54:04;;;;;;;0.08;0.08;;;;;;;22.11;60.38;99928.62;5335221;26;20668;-95
2023/09/14 18:56:34;;;;;;;0.00;0.00;;;;;;;21.86;60.36;99935.78;5329138;26;20108;-96
2023/09/14 18:59:00;;;;;;;0.00;0.00;;;;;;;21.75;60.37;99944.50;5312127;26;20053;-95
2023/09/14 19:01:26;;;;;;;0.00;0.00;;;;;;;21.79;60.36;99944.31;5311186;26;20051;-94
2023/09/14 19:03:54;;;;;;;0.10;0.10;;;;;;;21.85;60.36;99947.34;5311100;26;20094;-95
2023/09/14 19:06:23;;;;;;;0.43;0.30;;;;;;;21.82;60.37;99950.22;5311714;26;20060;-96
2023/09/14 19:08:54;;;;;;;0.25;0.25;;;;;;;21.93;60.36;99944.94;5312857;26;20065;-95
2023/09/14 19:11:31;;;;;;;0.08;0.08;;;;;;;21.99;60.37;99946.25;5311139;26;20183;-94
2023/09/14 19:13:59;;;;;;;0.22;0.17;;;;;;;22.03;60.38;99953.03;5313679;26;20066;-94
2023/09/14 19:16:25;;;;;;;7.43;0.82;;;;;;;21.82;60.36;99957.31;5311166;26;20061;-95
2023/09/14 19:18:51;;;;;;;0.52;0.40;;;;;;;21.71;60.37;99964.25;5311104;26;20021;-95
2023/09/14 19:21:17;;;;;;;0.15;0.15;;;;;;;21.76;60.36;99964.75;5310756;26;20047;-94
2023/09/14 19:23:46;;;;;;;1.05;0.20;;;;;;;21.78;60.36;99969.97;5314121;26;20020;-95
2023/09/14 19:26:54;;;;;;;2.35;1.85;;;;;;;22.10;60.39;99964.91;5318650;26;20060;-96
2023/09/14 19:32:41;;;;;;;0.40;0.40;;;;;;;21.95;60.36;99964.22;5381517;26;20140;-96
2023/09/14 19:35:19;;;;;;;1.42;0.50;;;;;;;21.80;60.37;99961.91;5331882;26;20107;-96
2023/09/14 19:37:47;;;;;;;0.10;0.10;;;;;;;21.71;60.36;99966.06;5338967;26;20063;-96
2023/09/14 19:40:13;;;;;;;0.10;0.10;;;;;;;21.65;60.36;99967.38;5335456;26;20024;-96
2023/09/14 19:42:44;;;;;;;0.55;0.40;;;;;;;21.62;60.35;99961.47;5339454;26;20059;-96
2023/09/14 19:48:09;;;;;;;0.10;0.10;;;;;;;21.62;60.35;99972.91;5362372;26;20082;-96
2023/09/14 19:50:44;;;;;;;0.10;0.10;;;;;;;21.52;60.35;99974.50;5334917;26;20078;-96
2023/09/14 19:53:13;;;;;;;0.10;0.10;;;;;;;21.55;60.35;99970.81;5335030;26;20024;-96
2023/09/14 19:55:50;;;;;;;0.00;0.00;;;;;;;21.63;60.35;99971.94;5336401;26;20024;-94
2023/09/14 19:58:49;;;;;;;0.10;0.10;;;;;;;21.61;60.35;99975.66;5337352;26;20063;-96
2023/09/14 20:01:31;;;;;;;0.00;0.00;;;;;;;21.71;60.36;99974.84;5357321;26;20080;-96
2023/09/14 20:04:31;;;;;;;0.17;0.17;;;;;;;21.61;60.35;99971.22;5324995;26;20059;-96
2023/09/14 20:07:30;;;;;;;0.10;0.10;;;;;;;21.71;60.37;99971.34;5330761;26;20024;-96
2023/09/14 20:10:10;;;;;;;1.80;0.40;;;;;;;21.63;60.35;99979.88;5361700;26;20037;-96
2023/09/14 20:41:34;;;;;;;0.40;0.40;;;;;;;20.97;60.32;99978.50;5302771;27;20092;-96
2023/09/14 20:44:00;;;;;;;0.32;0.08;;;;;;;20.88;60.32;99976.50;5268478;27;20048;-96
2023/09/14 20:51:06;;;;;;;;;;;;;;;;;;;;;
2023/09/14 20:54:19;;;;;;;0.10;0.10;;;;;;;20.90;60.31;99979.91;5212400;27;20062;-96
2023/09/14 20:57:37;;;;;;;;;;;;;;;;;;;;;
2023/09/14 21:15:17;;;;;;;;;;;;;;;;;;;;;
2023/09/14 21:42:14;;;;;;;0.20;0.20;;;;;;;20.55;60.31;99995.59;5010806;28;20042;-96
2023/09/14 21:51:30;;;;;;;0.05;0.05;;;;;;;20.45;60.28;100000.66;5085436;28;20061;-96
2023/09/14 21:57:48;;;;;;;;;;;;;;;;;;;;;
2023/09/14 22:48:41;;;;;;;;;;;;;;;;;;;;;
2023/09/14 23:06:17;;;;;;;0.95;0.95;;;;;;;20.66;60.30;100014.22;5008523;28;20046;-96
2023/09/14 23:13:02;;;;;;;0.00;0.00;;;;;;;20.60;60.30;100019.94;5034247;28;20050;-96
2023/09/14 23:16:28;;;;;;;;;;;;;;;;;;;;;
2023/09/14 23:37:34;;;;;;;;;;;;;;;;;;;;;
